createdAt,value
2022-10-10T00:01:16.979Z,19.40
2022-10-10T00:03:44.260Z,19.46
2022-10-10T00:06:11.794Z,19.21
2022-10-10T00:08:38.802Z,18.94
2022-10-10T00:11:06.080Z,18.57
2022-10-10T00:13:33.698Z,19.05
2022-10-10T00:16:01.654Z,18.48
2022-10-10T00:18:28.978Z,17.73
2022-10-10T00:20:55.777Z,18.56
2022-10-10T00:23:22.789Z,18.34
2022-10-10T00:25:50.008Z,18.99
2022-10-10T00:28:18.013Z,18.18
2022-10-10T00:30:45.805Z,17.81
2022-10-10T00:33:13.053Z,18.05
2022-10-10T00:35:40.594Z,18.48
2022-10-10T00:38:07.593Z,18.77
2022-10-10T00:40:36.419Z,18.43
2022-10-10T00:43:03.109Z,18.72
2022-10-10T00:45:39.331Z,18.90
2022-10-10T00:48:11.445Z,19.33
2022-10-10T00:50:44.409Z,18.17
2022-10-10T00:53:13.389Z,19.29
2022-10-10T00:55:40.378Z,19.61
2022-10-10T00:58:08.427Z,19.10
2022-10-10T01:00:35.434Z,18.45
2022-10-10T01:03:02.534Z,16.79
2022-10-10T01:05:30.070Z,18.59
2022-10-10T01:07:57.170Z,18.38
2022-10-10T01:10:24.830Z,17.59
2022-10-10T01:13:37.822Z,16.46
2022-10-10T01:16:14.555Z,15.06
2022-10-10T01:19:06.144Z,18.48
2022-10-10T01:21:57.205Z,19.10
2022-10-10T01:24:35.832Z,18.38
2022-10-10T01:27:38.463Z,18.19
2022-10-10T01:30:09.787Z,17.62
2022-10-10T01:32:39.808Z,16.77
2022-10-10T01:35:25.277Z,16.72
2022-10-10T01:38:24.035Z,14.91
2022-10-10T01:40:56.073Z,15.03
2022-10-10T01:43:25.859Z,14.76
2022-10-10T01:45:54.137Z,14.79
2022-10-10T01:48:24.946Z,13.86
2022-10-10T01:51:09.908Z,15.31
2022-10-10T01:53:49.900Z,16.43
2022-10-10T01:56:25.422Z,15.39
2022-10-10T01:59:07.757Z,17.10
2022-10-10T02:01:37.519Z,16.76
2022-10-10T02:04:13.868Z,14.72
2022-10-10T02:06:49.717Z,16.24
2022-10-10T02:09:36.591Z,15.94
2022-10-10T02:12:04.763Z,17.33
2022-10-10T02:14:37.615Z,16.28
2022-10-10T02:17:08.622Z,17.10
2022-10-10T02:19:37.173Z,14.03
2022-10-10T02:22:05.921Z,15.74
2022-10-10T02:24:33.548Z,15.28
2022-10-10T02:27:23.818Z,16.89
2022-10-10T02:29:53.013Z,16.05
2022-10-10T02:32:30.220Z,15.52
2022-10-10T02:35:01.246Z,14.93
2022-10-10T02:37:30.410Z,15.62
2022-10-10T02:40:02.229Z,15.62
2022-10-10T02:42:30.328Z,13.33
2022-10-10T02:44:57.698Z,15.98
2022-10-10T02:47:24.640Z,16.07
2022-10-10T02:49:51.986Z,15.07
2022-10-10T02:52:19.056Z,17.07
2022-10-10T02:54:46.030Z,16.75
2022-10-10T02:57:12.819Z,15.66
2022-10-10T02:59:39.713Z,16.58
2022-10-10T03:02:06.606Z,16.81
2022-10-10T03:04:35.242Z,15.00
2022-10-10T03:07:03.519Z,16.81
2022-10-10T03:09:30.613Z,16.05
2022-10-10T03:11:57.390Z,15.82
2022-10-10T03:14:24.292Z,15.59
2022-10-10T03:16:51.358Z,15.66
2022-10-10T03:19:18.731Z,16.70
2022-10-10T03:21:45.844Z,16.80
2022-10-10T03:24:13.041Z,15.22
2022-10-10T03:26:39.755Z,16.48
2022-10-10T03:29:06.811Z,16.78
2022-10-10T03:31:33.933Z,16.82
2022-10-10T03:34:00.891Z,16.90
2022-10-10T03:36:27.606Z,15.65
2022-10-10T03:38:54.342Z,16.34
2022-10-10T03:41:21.303Z,16.44
2022-10-10T03:43:48.058Z,16.46
2022-10-10T03:46:16.376Z,16.45
2022-10-10T03:48:43.700Z,16.50
2022-10-10T03:51:10.477Z,16.40
2022-10-10T03:53:37.338Z,16.21
2022-10-10T03:56:04.917Z,15.24
2022-10-10T03:58:33.057Z,15.65
2022-10-10T04:01:02.269Z,16.07
2022-10-10T04:03:30.138Z,14.99
2022-10-10T04:05:57.187Z,14.98
2022-10-10T04:08:24.843Z,14.95
2022-10-10T04:10:53.533Z,15.98
2022-10-10T04:13:21.740Z,15.73
2022-10-10T04:15:56.061Z,15.91
2022-10-10T04:18:23.775Z,16.09
2022-10-10T04:20:50.733Z,15.46
2022-10-10T04:23:18.194Z,15.82
2022-10-10T04:25:45.215Z,14.28
2022-10-10T04:28:13.108Z,14.26
2022-10-10T04:30:40.139Z,15.11
2022-10-10T04:33:07.265Z,14.92
2022-10-10T04:35:36.592Z,15.24
2022-10-10T04:38:05.087Z,14.73
2022-10-10T04:40:32.480Z,13.02
2022-10-10T04:43:00.262Z,13.92
2022-10-10T04:45:27.015Z,14.64
2022-10-10T04:47:54.491Z,15.25
2022-10-10T04:50:21.836Z,15.71
2022-10-10T04:52:49.597Z,15.78
2022-10-10T04:55:17.567Z,15.67
2022-10-10T04:57:44.775Z,14.74
2022-10-10T05:00:11.938Z,13.17
2022-10-10T05:02:38.627Z,14.86
2022-10-10T05:05:05.993Z,15.29
2022-10-10T05:07:33.478Z,14.67
2022-10-10T05:10:00.205Z,14.16
2022-10-10T05:12:26.975Z,14.42
2022-10-10T05:14:53.713Z,14.48
2022-10-10T05:17:20.576Z,13.57
2022-10-10T05:19:48.766Z,13.45
2022-10-10T05:22:15.483Z,14.19
2022-10-10T05:24:42.301Z,14.13
2022-10-10T05:27:09.045Z,13.96
2022-10-10T05:29:35.753Z,13.39
2022-10-10T05:32:09.196Z,14.41
2022-10-10T05:34:37.394Z,14.29
2022-10-10T05:37:04.383Z,15.29
2022-10-10T05:39:31.208Z,14.09
2022-10-10T05:41:57.912Z,13.88
2022-10-10T05:44:24.842Z,14.78
2022-10-10T05:46:51.527Z,15.39
2022-10-10T05:49:18.910Z,15.06
2022-10-10T05:51:45.711Z,14.82
2022-10-10T05:54:12.505Z,16.36
2022-10-10T05:56:39.256Z,17.26
2022-10-10T05:59:06.317Z,16.07
2022-10-10T06:01:34.114Z,17.16
2022-10-10T06:04:00.830Z,15.62
2022-10-10T06:06:27.558Z,17.77
2022-10-10T06:08:54.305Z,18.70
2022-10-10T06:11:22.830Z,17.12
2022-10-10T06:13:54.143Z,17.40
2022-10-10T06:16:22.614Z,17.01
2022-10-10T06:18:49.449Z,18.46
2022-10-10T06:21:17.612Z,19.30
2022-10-10T06:23:44.874Z,16.10
2022-10-10T06:26:11.963Z,16.78
2022-10-10T06:28:38.676Z,17.39
2022-10-10T06:31:08.406Z,17.96
2022-10-10T06:33:37.734Z,16.97
2022-10-10T06:36:07.183Z,18.22
2022-10-10T06:38:42.162Z,16.59
2022-10-10T06:41:09.390Z,17.69
2022-10-10T06:43:36.842Z,17.21
2022-10-10T06:46:04.627Z,18.11
2022-10-10T06:48:32.640Z,17.94
2022-10-10T06:51:01.862Z,17.32
2022-10-10T06:53:28.801Z,18.78
2022-10-10T06:55:56.039Z,19.04
2022-10-10T06:58:23.683Z,17.82
2022-10-10T07:00:58.158Z,19.11
2022-10-10T07:03:25.514Z,19.27
2022-10-10T07:05:54.193Z,17.74
2022-10-10T07:08:21.411Z,18.99
2022-10-10T07:10:48.140Z,19.38
2022-10-10T07:13:15.362Z,16.96
2022-10-10T07:15:42.304Z,19.22
2022-10-10T07:18:09.524Z,20.15
2022-10-10T07:20:36.697Z,20.00
2022-10-10T07:23:05.022Z,21.71
2022-10-10T07:25:31.765Z,22.54
2022-10-10T07:27:58.682Z,23.98
2022-10-10T07:30:25.467Z,24.39
2022-10-10T07:32:55.638Z,24.62
2022-10-10T07:35:23.996Z,24.82
2022-10-10T07:37:56.074Z,22.17
2022-10-10T07:40:23.415Z,22.13
2022-10-10T07:42:51.458Z,23.99
2022-10-10T07:45:18.482Z,21.30
2022-10-10T07:47:45.329Z,22.59
2022-10-10T07:50:12.976Z,22.21
2022-10-10T07:52:40.893Z,24.54
2022-10-10T07:55:08.569Z,23.04
2022-10-10T07:57:35.615Z,22.25
2022-10-10T08:00:08.606Z,22.80
2022-10-10T08:02:41.247Z,22.63
2022-10-10T08:05:08.682Z,24.71
2022-10-10T08:07:35.599Z,25.04
2022-10-10T08:10:02.980Z,23.09
2022-10-10T08:12:30.138Z,24.11
2022-10-10T08:14:56.917Z,25.75
2022-10-10T08:17:23.903Z,24.96
2022-10-10T08:19:50.630Z,26.96
2022-10-10T08:22:17.360Z,27.10
2022-10-10T08:24:43.984Z,26.97
2022-10-10T08:27:10.744Z,26.03
2022-10-10T08:29:37.674Z,25.93
2022-10-10T08:32:05.811Z,25.71
2022-10-10T08:34:32.621Z,25.28
2022-10-10T08:36:59.382Z,25.98
2022-10-10T08:39:26.134Z,25.82
2022-10-10T08:41:56.784Z,24.62
2022-10-10T08:44:46.370Z,25.90
2022-10-10T08:47:19.114Z,25.28
2022-10-10T08:49:57.331Z,25.29
2022-10-10T08:52:42.580Z,26.26
2022-10-10T08:55:20.905Z,25.06
2022-10-10T08:58:01.281Z,26.29
2022-10-10T09:00:33.147Z,23.93
2022-10-10T09:03:01.545Z,26.30
2022-10-10T09:06:21.342Z,24.25
2022-10-10T09:08:48.108Z,25.48
2022-10-10T09:11:47.246Z,24.90
2022-10-10T09:14:38.275Z,25.82
2022-10-10T09:17:26.057Z,26.98
2022-10-10T09:20:15.780Z,24.00
2022-10-10T09:23:13.146Z,21.46
2022-10-10T09:25:48.296Z,26.67
2022-10-10T09:28:22.433Z,25.14
2022-10-10T09:30:54.611Z,25.06
2022-10-10T09:33:52.473Z,26.72
2022-10-10T09:36:24.766Z,27.05
2022-10-10T09:38:55.794Z,26.91
2022-10-10T09:41:43.813Z,26.44
2022-10-10T09:44:13.496Z,27.57
2022-10-10T09:46:40.525Z,28.62
2022-10-10T09:49:13.215Z,26.87
2022-10-10T09:51:39.950Z,29.19
2022-10-10T09:54:07.996Z,28.07
2022-10-10T09:56:48.824Z,29.92
2022-10-10T09:59:38.446Z,28.60
2022-10-10T10:02:17.429Z,28.35
2022-10-10T10:04:44.259Z,29.25
2022-10-10T10:07:22.771Z,26.83
2022-10-10T10:09:55.097Z,29.94
2022-10-10T10:12:29.342Z,25.09
2022-10-10T10:15:07.061Z,27.49
2022-10-10T10:17:33.854Z,29.78
2022-10-10T10:20:00.693Z,27.87
2022-10-10T10:22:30.455Z,29.38
2022-10-10T10:24:58.147Z,27.21
2022-10-10T10:27:27.722Z,27.97
2022-10-10T10:29:58.016Z,26.67
2022-10-10T10:33:05.104Z,27.23
2022-10-10T10:35:44.491Z,27.92
2022-10-10T10:38:40.050Z,29.76
2022-10-10T10:41:27.058Z,29.43
2022-10-10T10:44:08.958Z,26.27
2022-10-10T10:46:55.080Z,26.83
2022-10-10T10:49:37.230Z,30.35
2022-10-10T10:52:15.893Z,26.42
2022-10-10T10:55:12.802Z,28.85
2022-10-10T10:58:04.553Z,27.78
2022-10-10T11:01:23.297Z,28.63
2022-10-10T11:05:23.169Z,27.70
2022-10-10T11:06:33.813Z,27.18
2022-10-10T11:09:44.930Z,26.73
2022-10-10T11:12:11.642Z,26.03
2022-10-10T11:14:58.178Z,28.43
2022-10-10T11:17:36.251Z,30.16
2022-10-10T11:20:18.210Z,30.81
2022-10-10T11:23:07.965Z,27.30
2022-10-10T11:25:52.751Z,29.89
2022-10-10T11:28:29.366Z,28.90
2022-10-10T11:31:08.819Z,30.78
2022-10-10T11:33:41.719Z,30.72
2022-10-10T11:36:37.901Z,27.69
2022-10-10T11:39:20.038Z,27.29
2022-10-10T11:41:54.384Z,30.23
2022-10-10T11:44:37.665Z,31.06
2022-10-10T11:47:18.828Z,29.51
2022-10-10T11:50:30.117Z,28.75
2022-10-10T11:53:08.919Z,27.85
2022-10-10T11:55:47.355Z,29.08
2022-10-10T11:58:25.836Z,29.30
2022-10-10T12:00:58.178Z,28.75
2022-10-10T12:03:28.320Z,28.48
2022-10-10T12:06:26.650Z,28.23
2022-10-10T12:09:03.695Z,27.80
2022-10-10T12:11:39.626Z,29.02
2022-10-10T12:14:09.901Z,30.88
2022-10-10T12:16:38.185Z,28.58
2022-10-10T12:19:15.158Z,28.95
2022-10-10T12:21:54.674Z,31.08
2022-10-10T12:24:23.130Z,30.73
2022-10-10T12:26:53.508Z,30.01
2022-10-10T12:29:51.111Z,31.01
2022-10-10T12:32:18.112Z,29.91
2022-10-10T12:34:47.898Z,28.21
2022-10-10T12:37:26.019Z,25.97
2022-10-10T12:40:17.076Z,28.31
2022-10-10T12:42:46.771Z,30.57
2022-10-10T12:45:28.716Z,28.64
2022-10-10T12:48:19.883Z,30.78
2022-10-10T12:50:59.350Z,30.05
2022-10-10T12:53:30.243Z,28.95
2022-10-10T12:56:00.984Z,30.23
2022-10-10T12:58:35.233Z,27.06
2022-10-10T13:01:24.761Z,29.97
2022-10-10T13:03:55.091Z,30.15
2022-10-10T13:06:39.997Z,29.58
2022-10-10T13:09:25.659Z,29.83
2022-10-10T13:11:55.488Z,29.78
2022-10-10T13:14:23.723Z,30.85
2022-10-10T13:16:50.586Z,28.66
2022-10-10T13:19:23.729Z,27.64
2022-10-10T13:21:53.730Z,28.43
2022-10-10T13:24:27.020Z,28.05
2022-10-10T13:26:54.865Z,26.55
2022-10-10T13:29:23.847Z,26.48
2022-10-10T13:31:53.731Z,27.18
2022-10-10T13:34:31.421Z,26.62
2022-10-10T13:37:00.701Z,26.32
2022-10-10T13:39:31.057Z,26.49
2022-10-10T13:41:58.540Z,26.82
2022-10-10T13:44:32.037Z,26.58
2022-10-10T13:46:58.890Z,28.05
2022-10-10T13:49:29.907Z,26.88
2022-10-10T13:52:03.378Z,26.34
2022-10-10T13:54:37.287Z,26.75
2022-10-10T13:57:10.476Z,27.15
2022-10-10T13:59:37.451Z,26.30
2022-10-10T14:02:04.692Z,26.66
2022-10-10T14:04:38.718Z,28.32
2022-10-10T14:07:29.389Z,28.10
2022-10-10T14:10:10.607Z,27.76
2022-10-10T14:12:43.049Z,28.02
2022-10-10T14:15:31.785Z,26.77
2022-10-10T14:17:58.515Z,26.76
2022-10-10T14:20:25.853Z,26.99
2022-10-10T14:22:52.750Z,26.59
2022-10-10T14:25:19.494Z,26.66
2022-10-10T14:27:46.523Z,26.82
2022-10-10T14:30:16.170Z,27.36
2022-10-10T14:32:43.037Z,26.14
2022-10-10T14:35:12.266Z,27.01
2022-10-10T14:37:39.630Z,26.76
2022-10-10T14:40:21.481Z,26.50
2022-10-10T14:42:48.806Z,26.63
2022-10-10T14:45:17.035Z,26.22
2022-10-10T14:47:43.753Z,26.26
2022-10-10T14:50:20.033Z,26.72
2022-10-10T14:52:46.833Z,25.60
2022-10-10T14:55:14.328Z,26.47
2022-10-10T14:57:42.074Z,26.61
2022-10-10T15:00:15.892Z,26.55
2022-10-10T15:02:45.599Z,26.70
2022-10-10T15:05:13.700Z,26.66
2022-10-10T15:07:42.186Z,26.53
2022-10-10T15:10:32.814Z,26.49
2022-10-10T15:12:58.190Z,26.21
2022-10-10T15:15:25.358Z,26.29
2022-10-10T15:17:52.105Z,25.78
2022-10-10T15:20:20.220Z,26.80
2022-10-10T15:22:46.993Z,26.26
2022-10-10T15:25:13.752Z,26.66
2022-10-10T15:27:41.393Z,26.82
2022-10-10T15:30:08.897Z,26.93
2022-10-10T15:32:39.330Z,26.79
2022-10-10T15:35:06.563Z,26.11
2022-10-10T15:37:33.309Z,26.09
2022-10-10T15:40:00.164Z,25.60
2022-10-10T15:42:28.460Z,25.59
2022-10-10T15:44:55.757Z,26.41
2022-10-10T15:47:23.575Z,26.24
2022-10-10T15:49:50.472Z,25.18
2022-10-10T15:52:18.578Z,25.96
2022-10-10T15:54:48.678Z,25.86
2022-10-10T15:57:18.656Z,25.18
2022-10-10T15:59:46.776Z,25.04
2022-10-10T16:02:13.768Z,25.52
2022-10-10T16:04:40.921Z,25.29
2022-10-10T16:09:55.810Z,25.18
2022-10-10T16:12:22.551Z,24.05
2022-10-10T16:14:49.372Z,24.85
2022-10-10T16:17:20.805Z,25.79
2022-10-10T16:19:49.854Z,25.50
2022-10-10T16:22:16.603Z,24.57
2022-10-10T16:24:53.904Z,25.12
2022-10-10T16:27:32.168Z,24.85
2022-10-10T16:29:58.953Z,25.13
2022-10-10T16:32:26.193Z,24.33
2022-10-10T16:34:52.871Z,24.62
2022-10-10T16:37:19.605Z,24.64
2022-10-10T16:39:46.373Z,25.14
2022-10-10T16:42:13.420Z,24.75
2022-10-10T16:44:41.203Z,24.59
2022-10-10T16:47:07.939Z,24.17
2022-10-10T16:49:34.639Z,24.40
2022-10-10T16:52:01.356Z,23.73
2022-10-10T16:54:29.424Z,25.00
2022-10-10T16:56:56.433Z,24.36
2022-10-10T16:59:23.189Z,24.14
2022-10-10T17:01:50.052Z,24.07
2022-10-10T17:04:16.766Z,23.63
2022-10-10T17:06:43.832Z,23.53
2022-10-10T17:09:12.228Z,23.68
2022-10-10T17:11:39.758Z,24.12
2022-10-10T17:14:06.631Z,23.02
2022-10-10T17:17:07.012Z,23.70
2022-10-10T17:19:20.218Z,23.34
2022-10-10T17:21:47.680Z,22.92
2022-10-10T17:24:14.570Z,21.08
2022-10-10T17:26:41.758Z,22.28
2022-10-10T17:29:09.254Z,20.77
2022-10-10T17:31:36.830Z,22.93
2022-10-10T17:34:03.601Z,22.85
2022-10-10T17:36:30.354Z,21.73
2022-10-10T17:39:00.315Z,22.11
2022-10-10T17:41:28.723Z,21.14
2022-10-10T17:43:56.022Z,23.08
2022-10-10T17:46:34.937Z,24.06
2022-10-10T17:49:05.810Z,22.74
2022-10-10T17:51:33.561Z,22.89
2022-10-10T17:54:01.234Z,23.59
2022-10-10T17:56:29.118Z,23.12
2022-10-10T17:58:57.609Z,22.58
2022-10-10T18:01:24.376Z,23.73
2022-10-10T18:03:51.753Z,23.92
2022-10-10T18:06:21.700Z,22.47
2022-10-10T18:08:53.785Z,23.53
2022-10-10T18:11:23.707Z,20.43
2022-10-10T18:13:51.318Z,21.88
2022-10-10T18:16:22.741Z,23.28
2022-10-10T18:18:51.950Z,23.30
2022-10-10T18:21:21.522Z,22.85
2022-10-10T18:23:49.270Z,22.87
2022-10-10T18:26:19.245Z,24.02
2022-10-10T18:28:46.684Z,24.06
2022-10-10T18:31:27.373Z,23.15
2022-10-10T18:33:55.193Z,23.33
2022-10-10T18:36:25.825Z,23.62
2022-10-10T18:38:52.748Z,22.71
2022-10-10T18:41:22.363Z,21.92
2022-10-10T18:43:50.110Z,22.63
2022-10-10T18:46:20.444Z,23.68
2022-10-10T18:48:51.472Z,24.39
2022-10-10T18:51:31.563Z,24.20
2022-10-10T18:54:05.749Z,23.78
2022-10-10T18:56:33.005Z,22.70
2022-10-10T18:59:02.005Z,21.20
2022-10-10T19:01:32.681Z,21.54
2022-10-10T19:04:00.191Z,22.75
2022-10-10T19:06:29.079Z,23.76
2022-10-10T19:08:58.323Z,23.74
2022-10-10T19:11:34.192Z,22.67
2022-10-10T19:14:04.060Z,22.64
2022-10-10T19:16:31.201Z,22.05
2022-10-10T19:18:59.653Z,22.50
2022-10-10T19:21:29.409Z,22.44
2022-10-10T19:23:57.071Z,20.44
2022-10-10T19:26:23.842Z,22.11
2022-10-10T19:28:50.640Z,20.16
2022-10-10T19:31:19.653Z,22.36
2022-10-10T19:33:51.433Z,22.58
2022-10-10T19:36:18.434Z,22.99
2022-10-10T19:38:45.155Z,22.87
2022-10-10T19:41:14.504Z,22.53
2022-10-10T19:43:43.782Z,22.06
2022-10-10T19:46:14.662Z,22.78
2022-10-10T19:48:42.176Z,22.36
2022-10-10T19:51:13.839Z,22.02
2022-10-10T19:53:42.496Z,22.14
2022-10-10T19:56:14.806Z,21.91
2022-10-10T19:58:43.771Z,21.90
2022-10-10T20:01:14.271Z,22.28
2022-10-10T20:03:41.898Z,21.67
2022-10-10T20:06:09.147Z,21.39
2022-10-10T20:08:36.283Z,21.70
2022-10-10T20:11:03.195Z,21.48
2022-10-10T20:13:31.055Z,21.77
2022-10-10T20:16:01.464Z,21.31
2022-10-10T20:18:28.895Z,21.24
2022-10-10T20:20:55.988Z,20.29
2022-10-10T20:23:25.046Z,20.58
2022-10-10T20:25:52.859Z,21.23
2022-10-10T20:28:21.482Z,21.61
2022-10-10T20:30:50.599Z,21.35
2022-10-10T20:33:19.769Z,21.07
2022-10-10T20:35:48.018Z,21.13
2022-10-10T20:38:16.907Z,20.38
2022-10-10T20:40:45.228Z,20.56
2022-10-10T20:43:12.848Z,20.26
2022-10-10T20:45:41.318Z,19.77
2022-10-10T20:48:08.486Z,20.75
2022-10-10T20:50:36.985Z,20.37
2022-10-10T20:53:05.466Z,20.74
2022-10-10T20:55:32.533Z,20.23
2022-10-10T20:58:00.330Z,19.13
2022-10-10T21:00:27.243Z,19.68
2022-10-10T21:02:56.605Z,19.82
2022-10-10T21:05:23.817Z,18.35
2022-10-10T21:07:50.662Z,19.01
2022-10-10T21:10:17.399Z,17.96
2022-10-10T21:12:44.595Z,17.13
2022-10-10T21:15:11.337Z,18.53
2022-10-10T21:17:38.111Z,17.16
2022-10-10T21:20:05.792Z,18.64
2022-10-10T21:22:32.742Z,18.20
2022-10-10T21:25:00.480Z,18.49
2022-10-10T21:27:27.673Z,17.68
2022-10-10T21:29:54.427Z,17.07
2022-10-10T21:32:21.262Z,17.53
2022-10-10T21:34:49.478Z,18.71
2022-10-10T21:37:17.873Z,17.10
2022-10-10T21:39:45.671Z,18.31
2022-10-10T21:42:12.578Z,15.48
2022-10-10T21:44:39.273Z,17.12
2022-10-10T21:47:05.991Z,18.09
2022-10-10T21:49:32.889Z,17.31
2022-10-10T21:51:59.721Z,17.43
2022-10-10T21:54:26.606Z,17.83
2022-10-10T21:56:53.282Z,15.73
2022-10-10T21:59:19.965Z,17.10
2022-10-10T22:01:46.664Z,17.77
2022-10-10T22:04:14.045Z,17.88
2022-10-10T22:06:41.619Z,17.45
2022-10-10T22:09:08.338Z,17.14
2022-10-10T22:11:35.237Z,17.01
2022-10-10T22:14:03.286Z,16.87
2022-10-10T22:16:32.017Z,17.83
2022-10-10T22:18:59.986Z,18.09
2022-10-10T22:21:31.698Z,18.38
2022-10-10T22:24:02.005Z,18.12
2022-10-10T22:26:30.095Z,18.28
2022-10-10T22:28:57.155Z,18.04
2022-10-10T22:31:24.118Z,17.54
2022-10-10T22:33:50.862Z,18.23
2022-10-10T22:36:17.731Z,18.26
2022-10-10T22:38:46.146Z,16.88
2022-10-10T22:41:13.697Z,17.69
2022-10-10T22:43:40.713Z,16.25
2022-10-10T22:46:08.545Z,16.39
2022-10-10T22:48:36.020Z,16.22
2022-10-10T22:51:08.474Z,18.14
2022-10-10T22:53:35.290Z,17.85
2022-10-10T22:56:02.885Z,17.62
2022-10-10T22:58:31.859Z,17.71
2022-10-10T23:01:07.114Z,17.72
2022-10-10T23:03:34.047Z,18.35
2022-10-10T23:06:02.588Z,18.22
2022-10-10T23:08:30.438Z,17.83
2022-10-10T23:10:57.217Z,16.17
2022-10-10T23:13:23.938Z,15.01
2022-10-10T23:15:51.589Z,17.36
2022-10-10T23:18:18.533Z,17.22
2022-10-10T23:20:47.195Z,17.80
2022-10-10T23:23:15.495Z,17.41
2022-10-10T23:25:44.462Z,17.01
2022-10-10T23:28:12.014Z,16.63
2022-10-10T23:30:40.398Z,17.25
2022-10-10T23:33:07.225Z,17.26
2022-10-10T23:35:34.866Z,17.47
2022-10-10T23:38:02.572Z,15.33
2022-10-10T23:40:29.711Z,14.09
2022-10-10T23:42:57.524Z,15.75
2022-10-10T23:45:24.347Z,17.20
2022-10-10T23:47:51.468Z,17.20
2022-10-10T23:50:18.252Z,16.18
2022-10-10T23:52:45.806Z,16.12
2022-10-10T23:55:12.725Z,17.77
2022-10-10T23:57:39.406Z,17.27
